Time;durP1;ratioP1;P1;durP2;ratioP2;P2;SDS_P1;SDS_P2;PMS_P1;PMS_P2;Temp;Humidity;BMP_temperature;BMP_pressure;BME280_temperature;BME280_humidity;BME280_pressure;Samples;Min_cycle;Max_cycle;Signal;HPM_P1;HPM_P2
2022/09/15 00:00:52;;;;;;;24.38;10.15;;;21.70;78.80;;;;;;5001557;28;20431;-81
2022/09/15 00:03:20;;;;;;;23.50;10.65;;;21.70;79.00;;;;;;5020688;28;20033;-82
2022/09/15 00:05:57;;;;;;;29.30;11.30;;;21.70;78.80;;;;;;4996822;28;20030;-82
2022/09/15 00:08:24;;;;;;;24.30;10.70;;;21.70;78.90;;;;;;4999163;28;20042;-82
2022/09/15 00:10:52;;;;;;;20.98;10.52;;;21.70;78.70;;;;;;4997063;28;20039;-81
2022/09/15 00:13:18;;;;;;;17.77;9.23;;;21.70;78.70;;;;;;4997751;28;20035;-82
2022/09/15 00:15:45;;;;;;;24.50;10.75;;;21.70;78.60;;;;;;4997309;28;20038;-82
2022/09/15 00:18:10;;;;;;;25.80;10.60;;;21.70;78.60;;;;;;5003656;28;20065;-82
2022/09/15 00:20:40;;;;;;;23.98;10.02;;;21.70;78.70;;;;;;5018196;28;20022;-81
2022/09/15 00:23:06;;;;;;;;;;;21.70;78.60;;;;;;5001106;28;20026;-81
2022/09/15 00:25:32;;;;;;;22.02;10.38;;;21.70;78.60;;;;;;5018032;28;19909;-81
2022/09/15 00:27:57;;;;;;;22.83;9.32;;;21.70;78.50;;;;;;5005880;28;20512;-82
2022/09/15 00:30:23;;;;;;;21.05;9.40;;;21.70;78.30;;;;;;4998281;28;20149;-81
2022/09/15 00:32:49;;;;;;;27.40;10.60;;;21.60;78.40;;;;;;4997149;28;20205;-82
2022/09/15 00:35:14;;;;;;;19.65;10.35;;;21.60;78.40;;;;;;5011459;28;20041;-81
2022/09/15 00:37:40;;;;;;;21.08;9.45;;;21.60;78.40;;;;;;4984493;28;20125;-82
2022/09/15 00:40:23;;;;;;;22.13;10.45;;;21.60;78.40;;;;;;4998167;28;20344;-81
2022/09/15 00:42:49;;;;;;;21.38;10.57;;;21.60;78.30;;;;;;4998515;28;20026;-82
2022/09/15 00:45:16;;;;;;;16.90;8.85;;;21.60;78.40;;;;;;4998021;28;20370;-81
2022/09/15 00:47:42;;;;;;;18.23;9.95;;;21.50;78.40;;;;;;4997519;28;20031;-81
2022/09/15 00:50:12;;;;;;;21.70;9.45;;;21.50;78.30;;;;;;4997918;28;20026;-82
2022/09/15 00:52:51;;;;;;;20.77;9.50;;;21.50;78.40;;;;;;5017363;28;20052;-82
2022/09/15 00:55:16;;;;;;;18.45;9.15;;;21.50;78.30;;;;;;5032934;28;20053;-82
2022/09/15 00:57:54;;;;;;;22.55;8.93;;;21.50;78.30;;;;;;5029767;28;20022;-81
2022/09/15 01:00:23;;;;;;;17.67;8.68;;;21.50;78.30;;;;;;4996753;28;20561;-81
2022/09/15 01:02:59;;;;;;;19.27;9.15;;;21.50;78.20;;;;;;4997696;28;20033;-82
2022/09/15 01:05:33;;;;;;;21.00;10.00;;;21.50;78.40;;;;;;4995857;28;20036;-81
2022/09/15 01:08:10;;;;;;;22.23;9.02;;;21.40;78.40;;;;;;4998056;28;20038;-81
2022/09/15 01:10:38;;;;;;;16.58;8.27;;;21.50;78.30;;;;;;4997469;28;20034;-81
2022/09/15 01:13:10;;;;;;;15.90;8.27;;;21.50;78.30;;;;;;4997635;28;20077;-81
2022/09/15 01:16:04;;;;;;;16.17;8.18;;;21.40;78.20;;;;;;4997450;28;20026;-81
2022/09/15 01:18:48;;;;;;;14.38;7.97;;;21.50;78.10;;;;;;4997530;28;20113;-81
2022/09/15 01:21:14;;;;;;;16.30;8.15;;;21.50;78.00;;;;;;4997793;28;20405;-81
2022/09/15 01:24:14;;;;;;;13.63;7.95;;;21.50;77.90;;;;;;5012408;28;20569;-81
2022/09/15 01:26:45;;;;;;;17.00;8.13;;;21.50;77.80;;;;;;5012385;28;20034;-81
2022/09/15 01:29:36;;;;;;;17.05;8.65;;;21.50;77.70;;;;;;4997530;28;20053;-81
2022/09/15 01:35:13;;;;;;;17.27;8.05;;;21.40;77.60;;;;;;5007799;28;20575;-81
2022/09/15 01:37:45;;;;;;;14.63;7.30;;;21.40;77.70;;;;;;5014494;28;20036;-81
2022/09/15 01:40:14;;;;;;;19.10;8.13;;;21.40;77.70;;;;;;4997146;28;20090;-81
2022/09/15 01:42:53;;;;;;;14.93;7.15;;;21.40;77.70;;;;;;4996438;28;20038;-81
2022/09/15 01:45:26;;;;;;;12.60;7.28;;;21.40;77.70;;;;;;4997054;28;20559;-81
2022/09/15 01:47:54;;;;;;;17.40;7.95;;;21.30;77.80;;;;;;4996872;28;20041;-81
2022/09/15 01:50:26;;;;;;;13.60;7.22;;;21.30;77.90;;;;;;4979879;28;20026;-81
2022/09/15 01:52:56;;;;;;;18.95;8.30;;;21.30;77.80;;;;;;4996906;28;20441;-81
2022/09/15 01:55:28;;;;;;;14.23;6.93;;;21.30;78.00;;;;;;4996922;28;20494;-81
2022/09/15 01:57:54;;;;;;;12.73;6.95;;;21.30;78.00;;;;;;4979204;28;20034;-81
2022/09/15 02:00:20;;;;;;;13.40;7.55;;;21.30;78.00;;;;;;4978898;28;20065;-81
2022/09/15 02:02:51;;;;;;;13.43;7.47;;;21.20;78.10;;;;;;5011788;28;20509;-81
2022/09/15 02:05:52;;;;;;;13.70;7.05;;;21.20;78.20;;;;;;5011882;28;20030;-81
2022/09/15 02:08:29;;;;;;;13.35;7.18;;;21.20;78.20;;;;;;4968276;28;20035;-81
2022/09/15 02:11:32;;;;;;;17.10;7.35;;;21.20;78.10;;;;;;4996486;28;20733;-81
2022/09/15 02:14:10;;;;;;;13.90;6.80;;;21.10;78.20;;;;;;4996936;28;20100;-81
2022/09/15 02:16:40;;;;;;;13.77;6.85;;;21.10;78.20;;;;;;4994966;28;20042;-81
2022/09/15 02:19:09;;;;;;;13.25;6.90;;;21.10;78.20;;;;;;5012024;28;20034;-81
2022/09/15 02:21:52;;;;;;;17.48;7.35;;;21.10;78.10;;;;;;5010573;28;20030;-81
2022/09/15 02:24:23;;;;;;;10.73;6.70;;;21.00;78.30;;;;;;4996348;28;20504;-81
2022/09/15 02:26:53;;;;;;;11.05;6.03;;;20.90;78.40;;;;;;4995342;28;20022;-81
2022/09/15 02:29:22;;;;;;;16.90;6.90;;;20.90;78.60;;;;;;5011583;28;20031;-81
2022/09/15 02:31:51;;;;;;;9.77;6.38;;;20.90;78.70;;;;;;5011765;28;20026;-81
2022/09/15 02:34:30;;;;;;;14.15;6.88;;;20.90;78.40;;;;;;5001482;28;20456;-81
2022/09/15 02:36:56;;;;;;;13.80;6.78;;;20.90;78.70;;;;;;4996705;28;20022;-78
2022/09/15 02:39:50;;;;;;;11.95;7.00;;;20.90;78.60;;;;;;4995615;28;20037;-78
2022/09/15 02:42:23;;;;;;;12.88;7.07;;;20.90;78.70;;;;;;4995307;28;20042;-82
2022/09/15 02:44:49;;;;;;;12.65;7.22;;;20.90;78.90;;;;;;4994433;28;20046;-82
2022/09/15 02:47:14;;;;;;;12.27;7.10;;;20.90;78.80;;;;;;4996434;28;20426;-81
2022/09/15 02:49:40;;;;;;;13.55;7.22;;;20.90;78.80;;;;;;4995887;28;20041;-81
2022/09/15 02:52:06;;;;;;;15.45;6.20;;;20.90;78.80;;;;;;4996076;28;20101;-81
2022/09/15 02:54:32;;;;;;;13.15;6.43;;;20.90;78.60;;;;;;4996301;28;20494;-81
2022/09/15 02:56:59;;;;;;;13.15;6.70;;;20.90;78.60;;;;;;4995447;28;20045;-81
2022/09/15 02:59:25;;;;;;;13.93;7.28;;;20.90;78.70;;;;;;5010895;28;20039;-81
2022/09/15 03:01:51;;;;;;;13.50;7.75;;;20.90;78.50;;;;;;4993983;28;20038;-81
2022/09/15 03:04:17;;;;;;;14.10;7.38;;;21.00;78.70;;;;;;4995873;28;20030;-82
2022/09/15 03:06:43;;;;;;;12.40;7.03;;;21.00;78.60;;;;;;4995773;28;20141;-81
2022/09/15 03:09:09;;;;;;;12.02;7.15;;;20.90;78.90;;;;;;4993985;28;20069;-81
2022/09/15 03:11:35;;;;;;;12.50;7.68;;;20.90;78.80;;;;;;4995914;28;20157;-82
2022/09/15 03:14:07;;;;;;;17.38;6.80;;;20.90;78.80;;;;;;4995756;28;20034;-82
2022/09/15 03:16:34;;;;;;;16.13;6.97;;;21.00;78.70;;;;;;4995048;28;20054;-82
2022/09/15 03:19:00;;;;;;;15.30;7.85;;;20.90;78.70;;;;;;4994130;28;20030;-81
2022/09/15 03:21:28;;;;;;;15.40;7.32;;;20.90;78.90;;;;;;5010811;28;20026;-81
2022/09/15 03:23:57;;;;;;;17.45;8.25;;;20.90;78.80;;;;;;4994492;28;20030;-81
2022/09/15 03:26:24;;;;;;;12.57;6.82;;;20.90;78.90;;;;;;4996239;28;20117;-81
2022/09/15 03:28:49;;;;;;;12.23;7.43;;;20.90;78.80;;;;;;4994223;28;20140;-82
2022/09/15 03:31:18;;;;;;;13.65;8.10;;;20.90;78.90;;;;;;4995637;28;20053;-82
2022/09/15 03:33:44;;;;;;;14.50;7.15;;;20.80;78.80;;;;;;5012178;28;20031;-81
2022/09/15 03:36:10;;;;;;;14.30;7.07;;;20.90;78.90;;;;;;5002420;28;20143;-82
2022/09/15 03:38:35;;;;;;;10.65;6.75;;;20.90;78.70;;;;;;4998090;28;20061;-82
2022/09/15 03:41:06;;;;;;;14.10;7.47;;;20.90;79.00;;;;;;4999653;28;20134;-82
2022/09/15 03:43:32;;;;;;;15.18;7.43;;;20.80;78.90;;;;;;4994299;28;20054;-82
2022/09/15 03:45:58;;;;;;;13.32;6.82;;;20.90;78.80;;;;;;5009375;28;20029;-81
2022/09/15 03:48:24;;;;;;;14.80;7.18;;;20.90;78.80;;;;;;4999173;28;20022;-82
2022/09/15 03:50:51;;;;;;;11.85;6.53;;;20.90;78.80;;;;;;4991051;28;20138;-82
2022/09/15 03:53:17;;;;;;;14.73;8.57;;;20.90;78.70;;;;;;4979624;28;20619;-82
2022/09/15 03:55:44;;;;;;;14.13;7.85;;;20.90;78.80;;;;;;4994671;28;20023;-82
2022/09/15 03:58:11;;;;;;;18.20;7.88;;;20.90;78.80;;;;;;4979556;28;20039;-81
2022/09/15 04:00:36;;;;;;;13.38;7.43;;;20.90;78.90;;;;;;4994012;28;20118;-82
2022/09/15 04:03:02;;;;;;;15.77;7.90;;;20.90;78.90;;;;;;4993752;28;20071;-82
2022/09/15 04:05:28;;;;;;;13.07;7.32;;;20.80;78.90;;;;;;4979504;28;20486;-82
2022/09/15 04:07:54;;;;;;;13.73;7.80;;;20.90;78.80;;;;;;4979450;28;20031;-82
2022/09/15 04:10:20;;;;;;;15.13;7.90;;;20.80;78.90;;;;;;4979251;28;20034;-82
2022/09/15 04:12:47;;;;;;;14.48;8.43;;;20.90;78.80;;;;;;4979379;28;20047;-82
2022/09/15 04:15:12;;;;;;;15.65;7.78;;;20.80;78.90;;;;;;4993763;28;20026;-82
2022/09/15 04:17:38;;;;;;;14.60;8.00;;;20.80;79.00;;;;;;4979285;28;20098;-82
2022/09/15 04:20:04;;;;;;;14.85;7.78;;;20.80;79.00;;;;;;4979029;28;20027;-81
2022/09/15 04:22:30;;;;;;;16.70;8.05;;;20.80;79.00;;;;;;4979778;28;20176;-80
2022/09/15 04:24:56;;;;;;;13.75;8.00;;;20.80;78.90;;;;;;4993758;28;20030;-82
2022/09/15 04:27:22;;;;;;;15.27;8.55;;;20.80;78.80;;;;;;4978686;28;20406;-82
2022/09/15 04:29:51;;;;;;;20.33;8.75;;;20.80;78.90;;;;;;4979078;28;20115;-86
2022/09/15 04:32:17;;;;;;;18.25;8.48;;;20.80;79.10;;;;;;4978631;28;20034;-80
2022/09/15 04:34:43;;;;;;;14.13;7.38;;;20.80;79.00;;;;;;4987349;28;20125;-80
2022/09/15 04:37:09;;;;;;;14.70;8.77;;;20.80;79.20;;;;;;4979152;28;20105;-80
2022/09/15 04:39:35;;;;;;;13.70;7.97;;;20.80;79.20;;;;;;4978729;28;20113;-79
2022/09/15 04:42:04;;;;;;;18.20;7.90;;;20.80;79.20;;;;;;4978934;28;20035;-79
2022/09/15 04:44:29;;;;;;;18.88;9.40;;;20.80;79.20;;;;;;4976071;28;20482;-74
2022/09/15 04:46:55;;;;;;;15.88;8.75;;;20.80;79.30;;;;;;4993341;28;20034;-80
2022/09/15 04:49:21;;;;;;;19.63;9.02;;;20.80;79.30;;;;;;4978234;28;20091;-75
2022/09/15 04:51:46;;;;;;;14.63;9.30;;;20.80;79.40;;;;;;4981603;28;20398;-83
2022/09/15 04:54:12;;;;;;;15.98;9.35;;;20.80;79.30;;;;;;4997713;28;20022;-77
2022/09/15 04:56:38;;;;;;;23.63;8.75;;;20.80;79.20;;;;;;4997712;28;20543;-77
2022/09/15 04:59:03;;;;;;;18.67;9.20;;;20.80;79.10;;;;;;5011593;28;20038;-77
2022/09/15 05:01:32;;;;;;;16.88;9.27;;;20.80;79.10;;;;;;4997507;28;20114;-78
2022/09/15 05:04:02;;;;;;;18.05;8.88;;;20.80;79.00;;;;;;4995240;28;20061;-77
2022/09/15 05:06:28;;;;;;;;;;;20.80;79.20;;;;;;4999073;28;20026;-76
2022/09/15 05:08:55;;;;;;;17.35;10.50;;;20.80;78.90;;;;;;4994341;28;19913;-77
2022/09/15 05:11:22;;;;;;;18.50;9.85;;;20.80;78.90;;;;;;4996348;28;20022;-75
2022/09/15 05:13:50;;;;;;;17.45;9.13;;;20.80;78.80;;;;;;4997895;28;20027;-76
2022/09/15 05:16:21;;;;;;;18.40;9.35;;;20.80;79.00;;;;;;4991648;28;20038;-77
2022/09/15 05:18:49;;;;;;;21.77;9.52;;;20.80;78.90;;;;;;4996443;28;20019;-76
2022/09/15 05:21:17;;;;;;;17.45;10.27;;;20.80;78.80;;;;;;4995570;28;20101;-77
2022/09/15 05:23:43;;;;;;;19.90;9.80;;;20.80;78.80;;;;;;4990876;28;20058;-77
2022/09/15 05:26:14;;;;;;;17.35;9.35;;;20.80;78.80;;;;;;4995492;28;20053;-77
2022/09/15 05:28:40;;;;;;;20.08;9.73;;;20.80;78.80;;;;;;4976312;28;20031;-77
2022/09/15 05:31:11;;;;;;;19.17;9.65;;;20.80;78.80;;;;;;4987760;28;20037;-77
2022/09/15 05:33:37;;;;;;;20.10;9.35;;;20.70;78.70;;;;;;4995856;28;20030;-77
2022/09/15 05:36:25;;;;;;;18.23;9.50;;;20.70;78.70;;;;;;4994417;28;20034;-77
2022/09/15 05:38:52;;;;;;;21.75;10.90;;;20.60;78.80;;;;;;4977715;28;20387;-77
2022/09/15 05:41:18;;;;;;;19.88;9.77;;;20.60;78.60;;;;;;5012385;28;20117;-77
2022/09/15 05:43:48;;;;;;;22.23;9.98;;;20.60;78.60;;;;;;5006062;28;20501;-77
2022/09/15 05:46:15;;;;;;;20.80;10.27;;;20.50;78.60;;;;;;5032386;28;20465;-77
2022/09/15 05:48:41;;;;;;;20.85;10.07;;;20.50;78.60;;;;;;4998567;28;20061;-77
2022/09/15 05:51:07;;;;;;;18.35;9.88;;;20.60;78.50;;;;;;5016586;28;20026;-77
2022/09/15 05:53:36;;;;;;;19.77;10.15;;;20.50;78.50;;;;;;5013911;28;20026;-77
2022/09/15 05:56:04;;;;;;;;;;;20.50;78.50;;;;;;4996819;28;20478;-77
2022/09/15 05:58:30;;;;;;;24.45;10.38;;;20.50;78.50;;;;;;4996887;28;19906;-77
2022/09/15 06:00:56;;;;;;;21.23;9.48;;;20.50;78.30;;;;;;4997000;28;20025;-77
2022/09/15 06:03:22;;;;;;;22.27;9.68;;;20.50;78.30;;;;;;4996975;28;20023;-78
2022/09/15 06:05:48;;;;;;;17.20;9.82;;;20.50;78.30;;;;;;4996992;28;20390;-77
2022/09/15 06:08:14;;;;;;;19.40;9.85;;;20.50;78.30;;;;;;4994997;28;20104;-77
2022/09/15 06:10:41;;;;;;;20.60;9.93;;;20.30;78.30;;;;;;5000095;28;20624;-77
2022/09/15 06:13:06;;;;;;;23.17;11.07;;;20.30;78.30;;;;;;5014567;28;20444;-77
2022/09/15 06:15:32;;;;;;;21.70;10.45;;;20.30;78.20;;;;;;5014681;28;20033;-77
2022/09/15 06:17:58;;;;;;;18.83;10.02;;;20.30;78.30;;;;;;4998156;28;20034;-77
2022/09/15 06:20:24;;;;;;;20.13;10.13;;;20.30;78.30;;;;;;4996018;28;20031;-77
2022/09/15 06:22:50;;;;;;;19.92;10.38;;;20.20;78.20;;;;;;4994799;28;20084;-77
2022/09/15 06:25:15;;;;;;;20.52;12.20;;;20.20;78.10;;;;;;4996583;28;20022;-77
2022/09/15 06:27:41;;;;;;;21.38;10.68;;;20.20;78.20;;;;;;4996845;28;20034;-77
2022/09/15 06:30:08;;;;;;;24.83;10.27;;;20.20;78.00;;;;;;4996442;28;20437;-77
2022/09/15 06:32:35;;;;;;;21.52;10.45;;;20.30;78.00;;;;;;4996363;28;20406;-77
2022/09/15 06:35:02;;;;;;;22.88;11.40;;;20.30;77.80;;;;;;4998643;28;20033;-77
2022/09/15 06:37:28;;;;;;;26.40;10.77;;;20.30;77.70;;;;;;5012727;28;20393;-77
2022/09/15 06:39:56;;;;;;;22.77;9.80;;;20.30;77.60;;;;;;4996618;28;20046;-77
2022/09/15 06:42:21;;;;;;;19.17;10.52;;;20.40;77.50;;;;;;4996581;28;20036;-77
2022/09/15 06:44:47;;;;;;;19.52;11.13;;;20.50;77.40;;;;;;4996214;28;20133;-78
2022/09/15 06:47:14;;;;;;;23.23;10.75;;;20.60;77.20;;;;;;4996730;28;20109;-77
2022/09/15 06:49:40;;;;;;;18.35;10.45;;;20.70;77.00;;;;;;4996269;28;20065;-77
2022/09/15 06:52:05;;;;;;;21.58;10.02;;;20.80;76.70;;;;;;4996418;28;20030;-78
2022/09/15 06:54:31;;;;;;;21.30;10.93;;;20.80;76.70;;;;;;4979080;28;20526;-77
2022/09/15 06:56:57;;;;;;;22.80;9.98;;;20.90;76.60;;;;;;4996124;28;20026;-78
2022/09/15 06:59:23;;;;;;;20.42;11.07;;;20.90;76.30;;;;;;4996313;28;20533;-77
2022/09/15 07:01:53;;;;;;;23.23;11.73;;;21.00;76.30;;;;;;5010586;28;20080;-77
2022/09/15 07:04:19;;;;;;;22.80;9.98;;;21.00;76.30;;;;;;4993643;28;20024;-77
2022/09/15 07:06:44;;;;;;;18.70;10.43;;;21.00;76.30;;;;;;4996273;28;20042;-77
2022/09/15 07:09:10;;;;;;;21.17;10.25;;;20.90;76.40;;;;;;4999378;28;20054;-78
2022/09/15 07:11:36;;;;;;;21.15;11.32;;;21.00;76.30;;;;;;5002558;28;20026;-77
2022/09/15 07:14:02;;;;;;;20.05;10.85;;;21.10;76.30;;;;;;4999245;28;20027;-77
2022/09/15 07:16:27;;;;;;;18.98;9.77;;;21.20;76.10;;;;;;5000497;28;20500;-77
2022/09/15 07:18:55;;;;;;;22.60;10.60;;;21.30;75.80;;;;;;5000269;28;20030;-77
2022/09/15 07:21:22;;;;;;;20.20;9.63;;;21.40;75.50;;;;;;5000083;28;20029;-77
2022/09/15 07:23:49;;;;;;;16.50;9.75;;;21.60;75.50;;;;;;5000684;28;20022;-78
2022/09/15 07:26:20;;;;;;;19.55;10.38;;;21.70;75.00;;;;;;5000172;28;20034;-77
2022/09/15 07:28:51;;;;;;;17.58;9.45;;;21.70;74.70;;;;;;5000074;28;20018;-78
2022/09/15 07:31:21;;;;;;;19.13;9.95;;;21.70;74.60;;;;;;4998428;28;20493;-77
2022/09/15 07:33:47;;;;;;;14.88;8.68;;;22.20;74.10;;;;;;5016144;28;20040;-78
2022/09/15 07:36:14;;;;;;;15.38;8.60;;;22.70;72.60;;;;;;5019767;28;20112;-78
2022/09/15 07:38:46;;;;;;;18.20;8.52;;;23.30;70.80;;;;;;5019595;28;20024;-78
2022/09/15 07:41:17;;;;;;;16.95;8.80;;;23.20;71.00;;;;;;5014636;28;20019;-78
2022/09/15 07:43:53;;;;;;;16.42;9.25;;;23.00;70.80;;;;;;4999826;28;20047;-77
2022/09/15 07:46:20;;;;;;;18.98;9.43;;;23.00;70.80;;;;;;4998667;28;20030;-77
2022/09/15 07:48:48;;;;;;;17.08;9.38;;;22.90;70.80;;;;;;5000074;28;20072;-77
2022/09/15 07:51:14;;;;;;;15.60;8.20;;;22.80;71.00;;;;;;4999527;28;20022;-78
2022/09/15 07:53:41;;;;;;;13.02;8.80;;;22.80;71.60;;;;;;4999498;28;20026;-77
2022/09/15 07:56:07;;;;;;;15.77;9.35;;;22.60;72.00;;;;;;4999846;28;20033;-77
2022/09/15 07:58:33;;;;;;;14.55;8.55;;;22.40;72.10;;;;;;4999621;28;20031;-77
2022/09/15 08:01:04;;;;;;;13.52;8.73;;;22.30;72.10;;;;;;5014479;28;20400;-78
2022/09/15 08:03:30;;;;;;;15.95;9.35;;;22.40;72.30;;;;;;4997517;28;20022;-77
2022/09/15 08:06:00;;;;;;;18.52;10.48;;;22.40;72.00;;;;;;4998159;28;20040;-78
2022/09/15 08:08:26;;;;;;;16.70;9.57;;;22.40;71.90;;;;;;4998334;28;20026;-77
2022/09/15 08:10:52;;;;;;;13.90;9.45;;;22.30;71.90;;;;;;5005719;28;20474;-77
2022/09/15 08:13:20;;;;;;;16.40;9.35;;;22.20;72.30;;;;;;5018789;28;20022;-78
2022/09/15 08:15:46;;;;;;;17.92;9.32;;;22.20;72.60;;;;;;5018677;28;20394;-77
2022/09/15 08:18:13;;;;;;;15.25;9.18;;;22.30;72.10;;;;;;5004465;28;20023;-77
2022/09/15 08:20:42;;;;;;;14.30;9.13;;;22.10;72.40;;;;;;4997020;28;20037;-77
2022/09/15 08:23:09;;;;;;;16.67;9.52;;;22.10;72.30;;;;;;4999590;28;20030;-77
2022/09/15 08:25:35;;;;;;;16.17;9.57;;;22.00;72.50;;;;;;4997827;28;20075;-77
2022/09/15 08:28:00;;;;;;;17.45;9.15;;;21.90;72.90;;;;;;4998942;28;20457;-78
2022/09/15 08:30:26;;;;;;;19.63;9.60;;;22.00;72.90;;;;;;4999010;28;20482;-78
2022/09/15 08:32:52;;;;;;;15.70;10.05;;;22.00;73.20;;;;;;4998638;28;20027;-77
2022/09/15 08:35:18;;;;;;;16.95;9.95;;;21.90;73.30;;;;;;5012071;28;20057;-78
2022/09/15 08:37:45;;;;;;;16.77;9.88;;;21.90;73.40;;;;;;5018226;28;20032;-77
2022/09/15 08:40:21;;;;;;;16.08;10.38;;;21.90;73.30;;;;;;4999221;28;20065;-78
2022/09/15 08:42:50;;;;;;;15.10;9.93;;;22.00;72.80;;;;;;4998423;28;20033;-77
2022/09/15 08:45:23;;;;;;;18.50;10.50;;;22.00;73.00;;;;;;4998386;28;20022;-78
2022/09/15 08:47:54;;;;;;;17.30;9.48;;;22.10;73.20;;;;;;4998987;28;20034;-78
2022/09/15 08:50:30;;;;;;;17.88;9.45;;;22.30;72.70;;;;;;4998309;28;20041;-78
2022/09/15 08:53:18;;;;;;;14.57;9.00;;;22.30;72.40;;;;;;4998464;28;20500;-78
2022/09/15 08:55:48;;;;;;;13.45;8.55;;;22.30;72.60;;;;;;4996875;28;20402;-78
2022/09/15 08:58:28;;;;;;;19.20;9.20;;;22.50;72.40;;;;;;5008222;28;20029;-78
2022/09/15 09:01:06;;;;;;;14.23;8.07;;;23.20;71.00;;;;;;4996176;28;20053;-78
2022/09/15 09:04:06;;;;;;;10.35;6.38;;;23.90;69.40;;;;;;4998193;28;20030;-78
2022/09/15 09:07:04;;;;;;;9.97;5.97;;;24.40;66.90;;;;;;4998121;28;20573;-78
2022/09/15 09:09:55;;;;;;;9.38;6.32;;;24.50;65.20;;;;;;4994173;28;20038;-78
2022/09/15 09:12:36;;;;;;;11.15;6.50;;;24.30;65.30;;;;;;5024327;28;20040;-78
2022/09/15 09:15:14;;;;;;;11.32;7.28;;;24.00;66.00;;;;;;4998027;28;20401;-78
2022/09/15 09:17:59;;;;;;;10.35;5.93;;;23.80;65.60;;;;;;4997908;28;20027;-78
2022/09/15 09:20:32;;;;;;;8.82;5.72;;;23.60;66.30;;;;;;4997851;28;20052;-78
2022/09/15 09:23:01;;;;;;;11.23;6.18;;;23.80;66.10;;;;;;4998204;28;20026;-78
2022/09/15 09:25:26;;;;;;;8.55;6.05;;;23.70;66.60;;;;;;4997727;28;20104;-78
2022/09/15 09:27:53;;;;;;;12.18;6.82;;;23.60;66.70;;;;;;4998331;28;20034;-78
2022/09/15 09:30:21;;;;;;;11.63;6.70;;;23.60;67.90;;;;;;5004678;28;20026;-77
2022/09/15 09:33:14;;;;;;;11.10;7.07;;;23.60;66.30;;;;;;5032580;28;20028;-78
2022/09/15 09:35:50;;;;;;;11.45;5.95;;;23.70;66.70;;;;;;5030785;28;20033;-78
2022/09/15 09:38:21;;;;;;;11.15;5.75;;;23.60;66.90;;;;;;5015913;28;20021;-78
2022/09/15 09:40:48;;;;;;;11.70;6.10;;;23.60;66.10;;;;;;4997512;28;20065;-78
2022/09/15 09:43:14;;;;;;;10.73;6.28;;;23.50;66.40;;;;;;4997388;28;20406;-78
2022/09/15 09:45:40;;;;;;;14.07;6.47;;;23.50;66.40;;;;;;4997889;28;20030;-78
2022/09/15 09:48:18;;;;;;;12.50;6.97;;;23.50;66.20;;;;;;4997473;28;20029;-77
2022/09/15 09:50:45;;;;;;;10.38;6.32;;;23.40;65.10;;;;;;4997814;28;20557;-77
2022/09/15 09:53:25;;;;;;;12.63;7.10;;;23.40;65.80;;;;;;4997463;28;20018;-77
2022/09/15 09:56:14;;;;;;;7.88;6.53;;;23.40;65.70;;;;;;5012162;28;20030;-78
2022/09/15 09:58:40;;;;;;;10.65;6.38;;;23.40;66.00;;;;;;5012912;28;20027;-77
2022/09/15 10:01:14;;;;;;;13.10;6.85;;;23.40;65.20;;;;;;4997167;28;20022;-78
2022/09/15 10:03:42;;;;;;;9.80;6.47;;;23.50;65.50;;;;;;4997019;28;20030;-78
2022/09/15 10:06:12;;;;;;;12.02;6.40;;;23.60;64.70;;;;;;4996975;28;20133;-78
2022/09/15 10:08:50;;;;;;;;;;;23.60;64.60;;;;;;5012816;28;20507;-78
2022/09/15 10:11:16;;;;;;;12.85;5.07;;;23.80;65.10;;;;;;4998238;28;19913;-78
2022/09/15 10:13:53;;;;;;;10.40;5.93;;;24.00;64.90;;;;;;5015802;28;20018;-77
2022/09/15 10:16:20;;;;;;;7.60;5.38;;;23.90;64.30;;;;;;4996741;28;20026;-78
2022/09/15 10:18:48;;;;;;;12.38;7.22;;;23.80;64.60;;;;;;5012173;28;20045;-78
2022/09/15 10:21:14;;;;;;;11.38;7.70;;;23.80;65.50;;;;;;4997087;28;20405;-78
2022/09/15 10:23:41;;;;;;;12.40;7.90;;;23.80;65.20;;;;;;5012025;28;20773;-78
2022/09/15 10:26:33;;;;;;;15.98;7.82;;;23.70;64.90;;;;;;4996660;28;20018;-78
2022/09/15 10:29:15;;;;;;;12.25;7.30;;;23.60;65.10;;;;;;5011989;28;20037;-78
2022/09/15 10:31:42;;;;;;;14.32;7.75;;;23.50;65.60;;;;;;4996672;28;20036;-78
2022/09/15 10:34:29;;;;;;;9.32;6.68;;;23.40;66.20;;;;;;5000956;28;20389;-78
2022/09/15 10:37:28;;;;;;;11.40;6.18;;;23.40;66.10;;;;;;5010968;28;20038;-78
2022/09/15 10:39:55;;;;;;;10.30;7.53;;;23.50;66.20;;;;;;4977731;28;20120;-78
2022/09/15 10:42:39;;;;;;;10.05;6.80;;;23.60;65.90;;;;;;4995974;28;20442;-78
2022/09/15 10:45:23;;;;;;;12.05;6.93;;;23.70;65.80;;;;;;4996369;28;20046;-77
2022/09/15 10:48:02;;;;;;;12.15;6.57;;;23.90;65.80;;;;;;4996277;28;20406;-78
2022/09/15 10:50:57;;;;;;;11.60;6.65;;;24.10;65.10;;;;;;4996712;28;20084;-77
2022/09/15 10:53:48;;;;;;;11.93;5.85;;;24.10;65.10;;;;;;5006741;28;20028;-77
2022/09/15 10:56:26;;;;;;;10.98;5.80;;;24.20;64.90;;;;;;5015761;28;20116;-77
2022/09/15 10:59:17;;;;;;;11.60;6.57;;;24.20;62.20;;;;;;5030988;28;20046;-77
2022/09/15 11:01:57;;;;;;;11.07;6.13;;;24.40;61.90;;;;;;5011638;28;20482;-77
2022/09/15 11:04:46;;;;;;;10.13;5.93;;;24.50;61.60;;;;;;5009860;28;20030;-78
2022/09/15 11:07:38;;;;;;;11.75;6.75;;;24.30;61.60;;;;;;4996157;28;20498;-78
2022/09/15 11:10:24;;;;;;;9.02;5.25;;;24.30;61.90;;;;;;4990696;28;20042;-79
2022/09/15 11:12:58;;;;;;;7.28;5.53;;;24.30;62.20;;;;;;4998003;28;20041;-78
2022/09/15 11:15:30;;;;;;;10.35;5.40;;;24.30;62.10;;;;;;5011209;28;20127;-77
2022/09/15 11:18:27;;;;;;;9.50;4.88;;;24.50;62.00;;;;;;4995984;28;20031;-78
2022/09/15 11:20:53;;;;;;;7.70;4.40;;;24.60;61.80;;;;;;4965616;28;20038;-77
2022/09/15 11:23:33;;;;;;;6.10;3.75;;;24.40;58.60;;;;;;5015688;28;20110;-78
2022/09/15 11:26:33;;;;;;;3.88;3.45;;;24.30;59.80;;;;;;5008748;28;20022;-78
2022/09/15 11:29:09;;;;;;;5.75;4.13;;;24.20;59.40;;;;;;4995025;28;20057;-78
2022/09/15 11:31:41;;;;;;;6.75;4.05;;;24.10;59.20;;;;;;5011451;28;20119;-78
2022/09/15 11:34:29;;;;;;;5.88;3.67;;;24.30;59.30;;;;;;4998161;28;20029;-77
2022/09/15 11:37:16;;;;;;;13.50;4.82;;;24.40;59.90;;;;;;4998724;28;20097;-78
2022/09/15 11:40:09;;;;;;;7.82;4.05;;;24.60;59.20;;;;;;4995014;28;20038;-78
2022/09/15 11:42:51;;;;;;;9.20;4.68;;;24.50;59.50;;;;;;4995841;28;20027;-78
2022/09/15 11:45:28;;;;;;;7.47;4.78;;;24.40;59.30;;;;;;5010927;28;20050;-78
2022/09/15 11:48:26;;;;;;;7.53;3.97;;;24.40;58.60;;;;;;4995644;28;20577;-78
2022/09/15 11:50:55;;;;;;;5.63;3.85;;;24.30;58.10;;;;;;4978002;28;20137;-78
2022/09/15 11:53:31;;;;;;;9.55;4.22;;;24.30;58.70;;;;;;4997590;28;20025;-78
2022/09/15 11:56:07;;;;;;;10.88;4.65;;;24.30;58.40;;;;;;5018342;28;20109;-78
2022/09/15 11:58:52;;;;;;;6.95;3.92;;;24.40;57.60;;;;;;5027016;28;20039;-78
2022/09/15 12:01:29;;;;;;;7.05;4.85;;;24.50;57.80;;;;;;4968609;28;20085;-78
2022/09/15 12:04:03;;;;;;;7.05;4.95;;;24.60;58.40;;;;;;4999204;28;20042;-77
2022/09/15 12:06:48;;;;;;;9.82;4.88;;;24.40;56.50;;;;;;4999357;28;20065;-78
2022/09/15 12:09:17;;;;;;;6.93;4.07;;;24.30;57.90;;;;;;4999071;28;20092;-78
2022/09/15 12:11:45;;;;;;;9.80;4.53;;;24.30;58.00;;;;;;5009813;28;20018;-78
2022/09/15 12:14:16;;;;;;;7.28;5.15;;;24.30;58.20;;;;;;4999193;28;20026;-78
2022/09/15 12:16:42;;;;;;;9.80;5.63;;;24.40;58.20;;;;;;5014259;28;20030;-77
2022/09/15 12:19:59;;;;;;;12.40;5.70;;;24.40;57.50;;;;;;4999571;28;20034;-77
2022/09/15 12:22:35;;;;;;;10.93;4.55;;;24.30;57.20;;;;;;4985449;28;20037;-78
2022/09/15 12:25:09;;;;;;;9.77;5.07;;;24.20;58.20;;;;;;5018603;28;20028;-77
2022/09/15 12:27:35;;;;;;;8.77;4.50;;;24.20;58.30;;;;;;5018253;28;20030;-77
2022/09/15 12:30:01;;;;;;;6.93;5.03;;;24.10;58.20;;;;;;5033827;28;20084;-77
2022/09/15 12:32:27;;;;;;;6.63;4.13;;;24.00;58.00;;;;;;5010291;28;20032;-77
2022/09/15 12:35:00;;;;;;;7.35;4.93;;;23.90;58.40;;;;;;5009150;28;20049;-77
2022/09/15 12:37:35;;;;;;;14.25;4.70;;;24.10;58.20;;;;;;4994622;28;20030;-77
2022/09/15 12:40:03;;;;;;;9.25;4.95;;;24.30;57.90;;;;;;4998563;28;20042;-77
2022/09/15 12:42:30;;;;;;;6.78;4.40;;;24.40;57.60;;;;;;4998723;28;20022;-77
2022/09/15 12:45:21;;;;;;;6.55;4.63;;;24.40;58.00;;;;;;4998670;28;20415;-77
2022/09/15 12:47:54;;;;;;;6.55;4.10;;;24.30;58.40;;;;;;4997064;28;20038;-77
2022/09/15 12:50:26;;;;;;;5.40;3.83;;;24.30;57.70;;;;;;4998428;28;20037;-76
2022/09/15 12:53:00;;;;;;;5.53;3.63;;;24.20;56.10;;;;;;4998527;28;20185;-78
2022/09/15 12:55:33;;;;;;;8.75;3.58;;;24.10;56.60;;;;;;4998512;28;20026;-79
2022/09/15 12:58:15;;;;;;;5.88;3.20;;;24.20;56.60;;;;;;5011029;28;20025;-78
2022/09/15 13:00:43;;;;;;;5.63;3.30;;;24.20;57.00;;;;;;5017925;28;20045;-78
2022/09/15 13:03:52;;;;;;;4.50;3.50;;;24.30;56.60;;;;;;5017626;28;20029;-78